createdAt,value
2019-03-06T00:02:09.830Z,12.70
2019-03-06T00:04:40.394Z,12.60
2019-03-06T00:07:10.941Z,12.60
2019-03-06T00:09:41.492Z,12.60
2019-03-06T00:12:11.952Z,12.60
2019-03-06T00:14:42.889Z,12.60
2019-03-06T00:17:14.446Z,12.60
2019-03-06T00:19:45.425Z,12.50
2019-03-06T00:22:16.166Z,12.50
2019-03-06T00:24:46.957Z,12.50
2019-03-06T00:27:17.832Z,12.50
2019-03-06T00:29:48.518Z,12.50
2019-03-06T00:32:19.156Z,12.50
2019-03-06T00:34:53.622Z,12.50
2019-03-06T00:37:24.313Z,12.50
2019-03-06T00:40:03.733Z,12.50
2019-03-06T00:42:37.448Z,12.50
2019-03-06T00:45:10.078Z,12.40
2019-03-06T00:47:42.337Z,12.50
2019-03-06T00:50:13.993Z,12.40
2019-03-06T00:52:52.730Z,12.40
2019-03-06T00:55:25.425Z,12.40
2019-03-06T00:57:55.855Z,12.40
2019-03-06T01:00:27.022Z,12.40
2019-03-06T01:02:57.572Z,12.40
2019-03-06T01:05:28.481Z,12.40
2019-03-06T01:07:58.945Z,12.30
2019-03-06T01:10:29.553Z,12.30
2019-03-06T01:13:00.084Z,12.30
2019-03-06T01:15:30.701Z,12.30
2019-03-06T01:18:02.257Z,12.30
2019-03-06T01:20:32.718Z,12.20
2019-03-06T01:23:03.452Z,12.30
2019-03-06T01:25:33.958Z,12.20
2019-03-06T01:28:04.467Z,12.30
2019-03-06T01:30:35.044Z,12.20
2019-03-06T01:33:11.382Z,12.20
2019-03-06T01:36:00.856Z,12.20
2019-03-06T01:38:48.803Z,12.20
2019-03-06T01:41:28.477Z,12.20
2019-03-06T01:44:12.580Z,12.20
2019-03-06T01:46:43.073Z,12.20
2019-03-06T01:49:13.729Z,12.20
2019-03-06T01:51:44.229Z,12.20
2019-03-06T01:54:14.761Z,12.20
2019-03-06T01:56:45.169Z,12.20
2019-03-06T01:59:15.644Z,12.20
2019-03-06T02:01:46.148Z,12.20
2019-03-06T02:04:16.664Z,12.10
2019-03-06T02:06:48.674Z,12.20
2019-03-06T02:09:21.088Z,12.20
2019-03-06T02:11:51.621Z,12.20
2019-03-06T02:14:22.220Z,12.20
2019-03-06T02:16:52.901Z,12.20
2019-03-06T02:19:24.433Z,12.20
2019-03-06T02:21:55.011Z,12.20
2019-03-06T02:24:25.771Z,12.20
2019-03-06T02:26:56.325Z,12.20
2019-03-06T02:29:26.863Z,12.20
2019-03-06T02:31:57.318Z,12.10
2019-03-06T02:34:27.889Z,12.10
2019-03-06T02:36:58.342Z,12.10
2019-03-06T02:39:28.807Z,12.10
2019-03-06T02:41:59.407Z,12.10
2019-03-06T02:44:29.935Z,12.10
2019-03-06T02:47:00.572Z,12.10
2019-03-06T02:49:33.924Z,12.10
2019-03-06T02:52:04.503Z,12.10
2019-03-06T02:54:34.953Z,12.10
2019-03-06T02:57:05.539Z,12.10
2019-03-06T02:59:42.301Z,12.10
2019-03-06T03:02:31.677Z,12.00
2019-03-06T03:05:15.859Z,12.00
2019-03-06T03:07:48.051Z,12.10
2019-03-06T03:10:18.698Z,12.10
2019-03-06T03:12:49.145Z,12.00
2019-03-06T03:15:20.106Z,12.00
2019-03-06T03:17:50.549Z,12.00
2019-03-06T03:20:21.085Z,12.00
2019-03-06T03:22:51.746Z,12.00
2019-03-06T03:25:22.286Z,12.00
2019-03-06T03:27:52.727Z,12.00
2019-03-06T03:30:23.227Z,11.90
2019-03-06T03:32:53.716Z,12.00
2019-03-06T03:35:24.189Z,12.00
2019-03-06T03:37:54.798Z,11.90
2019-03-06T03:40:25.269Z,11.90
2019-03-06T03:42:56.176Z,11.90
2019-03-06T03:45:26.708Z,11.90
2019-03-06T03:47:57.156Z,11.90
2019-03-06T03:50:27.929Z,11.90
2019-03-06T03:52:58.438Z,11.90
2019-03-06T03:55:29.944Z,11.90
2019-03-06T03:58:00.404Z,11.90
2019-03-06T04:00:30.908Z,11.90
2019-03-06T04:03:01.473Z,11.90
2019-03-06T04:05:31.892Z,11.90
2019-03-06T04:08:02.373Z,11.80
2019-03-06T04:10:32.820Z,11.80
2019-03-06T04:13:03.633Z,11.80
2019-03-06T04:15:34.186Z,11.80
2019-03-06T04:18:04.684Z,11.80
2019-03-06T04:20:35.149Z,11.90
2019-03-06T04:23:05.749Z,11.80
2019-03-06T04:25:36.562Z,11.80
2019-03-06T04:28:07.077Z,11.80
2019-03-06T04:30:37.713Z,11.80
2019-03-06T04:33:08.437Z,11.80
2019-03-06T04:35:38.952Z,11.80
2019-03-06T04:38:09.357Z,11.80
2019-03-06T04:40:39.899Z,11.80
2019-03-06T04:43:10.324Z,11.80
2019-03-06T04:45:41.081Z,11.80
2019-03-06T04:48:11.913Z,11.80
2019-03-06T04:50:42.414Z,11.80
2019-03-06T04:53:12.918Z,11.80
2019-03-06T04:55:43.448Z,11.80
2019-03-06T04:58:13.882Z,11.70
2019-03-06T05:00:44.403Z,11.80
2019-03-06T05:03:14.837Z,11.80
2019-03-06T05:05:45.361Z,11.70
2019-03-06T05:08:15.819Z,11.70
2019-03-06T05:10:46.327Z,11.80
2019-03-06T05:13:17.156Z,11.70
2019-03-06T05:15:47.648Z,11.70
2019-03-06T05:18:43.686Z,11.70
2019-03-06T05:21:49.015Z,11.70
2019-03-06T05:24:25.603Z,11.70
2019-03-06T05:26:56.689Z,11.70
2019-03-06T05:29:28.908Z,11.70
2019-03-06T05:32:48.537Z,11.70
2019-03-06T05:35:50.300Z,11.60
2019-03-06T05:38:32.106Z,11.60
2019-03-06T05:41:02.634Z,11.60
2019-03-06T05:43:34.313Z,11.60
2019-03-06T05:46:05.219Z,11.60
2019-03-06T05:48:35.696Z,11.60
2019-03-06T05:51:06.189Z,11.60
2019-03-06T05:53:36.820Z,11.50
2019-03-06T05:56:07.315Z,11.50
2019-03-06T05:58:37.895Z,11.50
2019-03-06T06:01:08.352Z,11.50
2019-03-06T06:03:38.961Z,11.50
2019-03-06T06:06:10.712Z,11.60
2019-03-06T06:08:41.178Z,11.60
2019-03-06T06:11:11.616Z,11.60
2019-03-06T06:13:42.290Z,11.60
2019-03-06T06:16:12.957Z,11.60
2019-03-06T06:18:43.550Z,11.60
2019-03-06T06:21:32.914Z,11.60
2019-03-06T06:24:10.721Z,11.60
2019-03-06T06:26:41.165Z,11.60
2019-03-06T06:29:11.723Z,11.60
2019-03-06T06:31:43.388Z,11.70
2019-03-06T06:34:13.923Z,11.70
2019-03-06T06:36:44.614Z,11.70
2019-03-06T06:39:15.135Z,11.70
2019-03-06T06:41:45.645Z,11.70
2019-03-06T06:44:16.092Z,11.70
2019-03-06T06:46:46.557Z,11.70
2019-03-06T06:49:17.924Z,11.70
2019-03-06T06:52:16.209Z,11.70
2019-03-06T06:55:08.118Z,11.70
2019-03-06T06:58:31.156Z,11.70
2019-03-06T07:01:59.950Z,11.80
2019-03-06T07:04:58.212Z,11.80
2019-03-06T07:07:59.986Z,11.80
2019-03-06T07:10:49.437Z,11.80
2019-03-06T07:13:54.297Z,11.90
2019-03-06T07:16:42.936Z,11.90
2019-03-06T07:19:25.237Z,11.90
2019-03-06T07:22:26.730Z,11.90
2019-03-06T07:25:15.144Z,12.00
2019-03-06T07:27:53.439Z,12.00
2019-03-06T07:30:44.263Z,12.10
2019-03-06T07:33:36.733Z,12.00
2019-03-06T07:36:32.188Z,12.10
2019-03-06T07:39:16.437Z,12.10
2019-03-06T07:41:54.832Z,12.20
2019-03-06T07:44:47.121Z,12.20
2019-03-06T07:47:43.327Z,12.20
2019-03-06T07:50:34.950Z,12.30
2019-03-06T07:54:06.587Z,12.30
2019-03-06T07:56:43.313Z,12.40
2019-03-06T07:59:13.898Z,12.40
2019-03-06T08:01:47.969Z,12.40
2019-03-06T08:04:19.061Z,12.50
2019-03-06T08:06:55.367Z,12.50
2019-03-06T08:09:25.924Z,12.60
2019-03-06T08:12:14.113Z,12.60
2019-03-06T08:15:01.050Z,12.70
2019-03-06T08:17:47.118Z,12.70
2019-03-06T08:20:45.369Z,12.70
2019-03-06T08:23:33.822Z,12.80
2019-03-06T08:26:05.725Z,12.90
2019-03-06T08:28:36.349Z,12.90
2019-03-06T08:31:18.937Z,12.90
2019-03-06T08:33:49.499Z,13.00
2019-03-06T08:36:19.987Z,13.00
2019-03-06T08:38:50.546Z,13.10
2019-03-06T08:41:21.358Z,13.10
2019-03-06T08:43:51.916Z,13.20
2019-03-06T08:46:41.298Z,13.20
2019-03-06T08:49:29.434Z,13.30
2019-03-06T08:52:25.053Z,13.40
2019-03-06T08:55:13.450Z,13.40
2019-03-06T08:58:02.969Z,13.50
2019-03-06T09:01:01.635Z,13.60
2019-03-06T09:03:57.487Z,13.60
2019-03-06T09:06:40.284Z,13.70
2019-03-06T09:09:41.786Z,13.80
2019-03-06T09:12:31.181Z,13.90
2019-03-06T09:15:23.930Z,14.00
2019-03-06T09:18:25.306Z,14.10
2019-03-06T09:21:11.042Z,14.20
2019-03-06T09:24:15.917Z,14.30
2019-03-06T09:27:23.538Z,14.40
2019-03-06T09:30:19.698Z,14.50
2019-03-06T09:33:04.351Z,14.60
2019-03-06T09:35:56.832Z,14.70
2019-03-06T09:38:35.917Z,14.80
2019-03-06T09:41:34.556Z,14.90
2019-03-06T09:44:26.785Z,15.00
2019-03-06T09:47:15.182Z,15.10
2019-03-06T09:50:03.536Z,15.20
2019-03-06T09:52:53.015Z,15.40
2019-03-06T09:55:40.381Z,15.60
2019-03-06T09:58:29.449Z,15.80
2019-03-06T10:01:13.380Z,16.00
2019-03-06T10:04:01.116Z,16.10
2019-03-06T10:06:39.209Z,16.30
2019-03-06T10:09:29.317Z,16.40
2019-03-06T10:12:12.279Z,16.40
2019-03-06T10:14:51.044Z,16.50
2019-03-06T10:17:30.280Z,16.60
2019-03-06T10:20:04.853Z,16.70
2019-03-06T10:22:35.497Z,16.70
2019-03-06T10:25:07.834Z,16.80
2019-03-06T10:27:39.545Z,17.00
2019-03-06T10:30:13.492Z,17.00
2019-03-06T10:32:44.381Z,17.10
2019-03-06T10:35:16.456Z,17.20
2019-03-06T10:37:47.285Z,17.30
2019-03-06T10:40:18.233Z,17.40
2019-03-06T10:42:48.809Z,17.50
2019-03-06T10:45:20.017Z,17.60
2019-03-06T10:47:50.911Z,17.80
2019-03-06T10:50:26.706Z,18.00
2019-03-06T10:52:54.830Z,18.40
2019-03-06T10:55:25.484Z,18.90
2019-03-06T10:57:56.472Z,19.50
2019-03-06T11:00:30.124Z,20.20
2019-03-06T11:03:01.412Z,20.90
2019-03-06T11:05:33.723Z,21.60
2019-03-06T11:08:05.335Z,22.20
2019-03-06T11:10:37.537Z,22.80
2019-03-06T11:13:11.434Z,23.20
2019-03-06T11:15:42.133Z,23.70
2019-03-06T11:18:12.984Z,23.90
2019-03-06T11:20:44.417Z,24.20
2019-03-06T11:23:14.908Z,24.40
2019-03-06T11:25:46.368Z,24.70
2019-03-06T11:28:17.214Z,24.90
2019-03-06T11:30:51.472Z,25.10
2019-03-06T11:33:23.750Z,25.20
2019-03-06T11:35:56.605Z,25.20
2019-03-06T11:38:28.156Z,25.30
2019-03-06T11:40:58.900Z,25.50
2019-03-06T11:43:29.937Z,25.70
2019-03-06T11:46:00.493Z,25.90
2019-03-06T11:48:31.388Z,26.00
2019-03-06T11:51:01.941Z,26.00
2019-03-06T11:53:33.013Z,26.00
2019-03-06T11:56:03.833Z,25.80
2019-03-06T11:58:34.541Z,25.60
2019-03-06T12:01:12.648Z,25.30
2019-03-06T12:03:44.750Z,25.10
2019-03-06T12:06:15.453Z,24.80
2019-03-06T12:08:46.188Z,24.50
2019-03-06T12:11:17.897Z,24.30
2019-03-06T12:13:48.789Z,24.10
2019-03-06T12:16:20.505Z,23.90
2019-03-06T12:18:52.461Z,23.80
2019-03-06T12:21:23.027Z,23.70
2019-03-06T12:23:53.624Z,23.60
2019-03-06T12:26:24.346Z,23.50
2019-03-06T12:28:54.920Z,23.40
2019-03-06T12:31:25.661Z,23.20
2019-03-06T12:33:56.145Z,23.10
2019-03-06T12:36:26.771Z,22.90
2019-03-06T12:38:57.607Z,22.80
2019-03-06T12:41:28.090Z,22.60
2019-03-06T12:43:58.602Z,22.50
2019-03-06T12:46:29.876Z,22.40
2019-03-06T12:49:05.962Z,22.30
2019-03-06T12:51:37.929Z,22.20
2019-03-06T12:54:09.329Z,22.10
2019-03-06T12:56:39.933Z,22.00
2019-03-06T12:59:11.530Z,21.80
2019-03-06T13:01:42.018Z,21.70
2019-03-06T13:04:12.575Z,21.60
2019-03-06T13:06:43.119Z,21.50
2019-03-06T13:09:20.937Z,21.40
2019-03-06T13:11:51.463Z,21.40
2019-03-06T13:14:21.967Z,21.30
2019-03-06T13:16:53.171Z,21.20
2019-03-06T13:19:23.746Z,21.00
2019-03-06T13:21:54.209Z,20.90
2019-03-06T13:24:25.856Z,20.90
2019-03-06T13:26:58.018Z,20.70
2019-03-06T13:29:28.611Z,20.70
2019-03-06T13:31:59.177Z,20.50
2019-03-06T13:34:50.319Z,20.50
2019-03-06T13:37:15.309Z,20.40
2019-03-06T13:39:45.851Z,20.40
2019-03-06T13:42:16.416Z,20.30
2019-03-06T13:44:47.085Z,20.20
2019-03-06T13:47:17.613Z,20.20
2019-03-06T13:49:48.630Z,20.10
2019-03-06T13:52:19.949Z,20.10
2019-03-06T13:54:50.511Z,20.10
2019-03-06T13:57:21.153Z,20.00
2019-03-06T13:59:51.816Z,20.00
2019-03-06T14:02:22.483Z,19.90
2019-03-06T14:04:53.127Z,19.80
2019-03-06T14:07:23.898Z,19.80
2019-03-06T14:09:54.441Z,19.80
2019-03-06T14:12:25.189Z,19.70
2019-03-06T14:14:56.856Z,19.70
2019-03-06T14:17:27.716Z,19.60
2019-03-06T14:19:58.169Z,19.60
2019-03-06T14:22:28.793Z,19.60
2019-03-06T14:24:59.259Z,19.50
2019-03-06T14:27:31.288Z,19.50
2019-03-06T14:30:01.855Z,19.50
2019-03-06T14:32:34.429Z,19.40
2019-03-06T14:35:05.254Z,19.40
2019-03-06T14:37:36.089Z,19.40
2019-03-06T14:40:10.151Z,19.40
2019-03-06T14:42:42.425Z,19.40
2019-03-06T14:45:14.408Z,19.30
2019-03-06T14:47:45.354Z,19.30
2019-03-06T14:50:15.905Z,19.30
2019-03-06T14:52:46.477Z,19.30
2019-03-06T14:55:17.428Z,19.30
2019-03-06T14:57:51.912Z,19.20
2019-03-06T15:00:23.188Z,19.20
2019-03-06T15:02:53.808Z,19.30
2019-03-06T15:05:24.464Z,19.30
2019-03-06T15:07:55.303Z,19.20
2019-03-06T15:10:25.939Z,19.20
2019-03-06T15:12:56.502Z,19.20
2019-03-06T15:15:27.259Z,19.20
2019-03-06T15:17:57.820Z,19.20
2019-03-06T15:20:28.736Z,19.20
2019-03-06T15:23:00.368Z,19.10
2019-03-06T15:25:31.142Z,19.10
2019-03-06T15:28:01.669Z,19.00
2019-03-06T15:30:32.200Z,19.00
2019-03-06T15:33:03.025Z,19.00
2019-03-06T15:35:33.592Z,19.00
2019-03-06T15:38:05.652Z,18.90
2019-03-06T15:40:36.377Z,18.90
2019-03-06T15:43:11.385Z,18.80
2019-03-06T15:45:42.144Z,18.80
2019-03-06T15:48:12.871Z,18.80
2019-03-06T15:50:43.520Z,18.80
2019-03-06T15:53:24.119Z,18.70
2019-03-06T15:55:56.512Z,18.70
2019-03-06T15:58:27.034Z,18.60
2019-03-06T16:00:57.514Z,18.70
2019-03-06T16:03:28.110Z,18.60
2019-03-06T16:05:58.809Z,18.60
2019-03-06T16:08:29.612Z,18.50
2019-03-06T16:11:00.181Z,18.50
2019-03-06T16:13:30.654Z,18.50
2019-03-06T16:16:01.561Z,18.50
2019-03-06T16:18:32.261Z,18.50
2019-03-06T16:21:02.868Z,18.40
2019-03-06T16:23:33.441Z,18.40
2019-03-06T16:26:03.952Z,18.40
2019-03-06T16:28:34.606Z,18.40
2019-03-06T16:31:05.172Z,18.30
2019-03-06T16:33:35.820Z,18.30
2019-03-06T16:36:06.873Z,18.20
2019-03-06T16:38:37.612Z,18.20
2019-03-06T16:41:08.155Z,18.20
2019-03-06T16:43:38.884Z,18.10
2019-03-06T16:46:09.468Z,18.10
2019-03-06T16:48:40.120Z,18.00
2019-03-06T16:51:10.984Z,18.10
2019-03-06T16:53:44.029Z,18.10
2019-03-06T16:56:14.911Z,18.00
2019-03-06T16:58:46.131Z,17.90
2019-03-06T17:01:18.245Z,17.90
2019-03-06T17:03:49.794Z,17.90
2019-03-06T17:06:23.044Z,17.90
2019-03-06T17:08:53.662Z,17.80
2019-03-06T17:11:24.564Z,17.80
2019-03-06T17:13:55.745Z,17.80
2019-03-06T17:16:27.544Z,17.80
2019-03-06T17:18:58.119Z,17.80
2019-03-06T17:21:28.729Z,17.70
2019-03-06T17:23:59.729Z,17.70
2019-03-06T17:26:30.174Z,17.70
2019-03-06T17:29:10.616Z,17.60
2019-03-06T17:31:41.949Z,17.70
2019-03-06T17:34:12.488Z,17.60
2019-03-06T17:36:43.204Z,17.60
2019-03-06T17:39:15.194Z,17.60
2019-03-06T17:41:45.816Z,17.60
2019-03-06T17:44:16.630Z,17.60
2019-03-06T17:46:47.238Z,17.50
2019-03-06T17:49:17.807Z,17.50
2019-03-06T17:51:48.680Z,17.50
2019-03-06T17:54:19.382Z,17.50
2019-03-06T17:56:51.755Z,17.50
2019-03-06T17:59:22.773Z,17.40
2019-03-06T18:01:53.580Z,17.40
2019-03-06T18:04:25.140Z,17.40
2019-03-06T18:06:55.669Z,17.40
2019-03-06T18:09:26.356Z,17.40
2019-03-06T18:11:57.993Z,17.40
2019-03-06T18:14:28.957Z,17.30
2019-03-06T18:16:59.672Z,17.30
2019-03-06T18:19:31.386Z,17.30
2019-03-06T18:22:01.978Z,17.20
2019-03-06T18:24:35.073Z,17.20
2019-03-06T18:27:10.322Z,17.20
2019-03-06T18:29:41.053Z,17.20
2019-03-06T18:32:16.334Z,17.20
2019-03-06T18:34:47.002Z,17.20
2019-03-06T18:37:22.939Z,17.20
2019-03-06T18:39:53.772Z,17.10
2019-03-06T18:42:30.165Z,17.10
2019-03-06T18:45:22.655Z,17.10
2019-03-06T18:48:05.644Z,17.10
2019-03-06T18:50:38.997Z,17.10
2019-03-06T18:53:22.123Z,17.10
2019-03-06T18:56:08.802Z,17.00
2019-03-06T18:58:40.880Z,17.00
2019-03-06T19:01:20.485Z,17.00
2019-03-06T19:03:52.528Z,16.90
2019-03-06T19:06:23.114Z,16.90
2019-03-06T19:08:55.492Z,16.90
2019-03-06T19:11:28.192Z,16.90
2019-03-06T19:14:03.196Z,16.90
2019-03-06T19:16:34.521Z,16.90
2019-03-06T19:19:08.313Z,16.90
2019-03-06T19:21:41.096Z,16.80
2019-03-06T19:24:19.111Z,16.80
2019-03-06T19:26:49.796Z,16.80
2019-03-06T19:29:20.840Z,16.80
2019-03-06T19:31:53.487Z,16.70
2019-03-06T19:34:24.104Z,16.80
2019-03-06T19:36:57.660Z,16.70
2019-03-06T19:39:29.273Z,16.70
2019-03-06T19:42:03.416Z,16.70
2019-03-06T19:44:34.086Z,16.70
2019-03-06T19:47:05.089Z,16.70
2019-03-06T19:49:35.772Z,16.70
2019-03-06T19:52:14.946Z,16.70
2019-03-06T19:54:48.960Z,16.60
2019-03-06T19:57:23.627Z,16.60
2019-03-06T19:59:55.225Z,16.60
2019-03-06T20:02:25.726Z,16.60
2019-03-06T20:04:59.982Z,16.60
2019-03-06T20:07:30.978Z,16.60
2019-03-06T20:10:01.953Z,16.60
2019-03-06T20:12:34.145Z,16.50
2019-03-06T20:15:07.954Z,16.60
2019-03-06T20:17:41.961Z,16.60
2019-03-06T20:20:12.833Z,16.50
2019-03-06T20:22:44.414Z,16.50
2019-03-06T20:25:17.245Z,16.50
2019-03-06T20:27:48.129Z,16.50
2019-03-06T20:30:23.288Z,16.50
2019-03-06T20:32:56.992Z,16.40
2019-03-06T20:35:28.233Z,16.50
2019-03-06T20:38:02.228Z,16.50
2019-03-06T20:40:35.820Z,16.50
2019-03-06T20:43:06.599Z,16.50
2019-03-06T20:45:43.247Z,16.50
2019-03-06T20:48:16.757Z,16.40
2019-03-06T20:50:47.419Z,16.50
2019-03-06T20:53:19.573Z,16.40
2019-03-06T20:55:53.069Z,16.40
2019-03-06T20:58:25.708Z,16.50
2019-03-06T21:00:56.911Z,16.50
2019-03-06T21:03:50.274Z,16.50
2019-03-06T21:06:33.565Z,16.40
2019-03-06T21:09:00.220Z,16.50
2019-03-06T21:11:30.948Z,16.50
2019-03-06T21:14:02.686Z,16.50
2019-03-06T21:16:33.595Z,16.40
2019-03-06T21:19:09.583Z,16.50
2019-03-06T21:21:40.614Z,16.50
2019-03-06T21:24:11.248Z,16.50
2019-03-06T21:26:43.709Z,16.50
2019-03-06T21:29:14.564Z,16.50
2019-03-06T21:31:48.172Z,16.50
2019-03-06T21:34:18.766Z,16.50
2019-03-06T21:36:49.473Z,16.50
2019-03-06T21:39:25.050Z,16.50
2019-03-06T21:41:58.960Z,16.40
2019-03-06T21:44:29.718Z,16.40
2019-03-06T21:47:00.259Z,16.40
2019-03-06T21:49:31.904Z,16.40
2019-03-06T21:52:07.613Z,16.40
2019-03-06T21:54:38.647Z,16.40
2019-03-06T21:57:09.170Z,16.30
2019-03-06T21:59:42.669Z,16.30
2019-03-06T22:02:13.325Z,16.30
2019-03-06T22:04:45.664Z,16.30
2019-03-06T22:07:16.191Z,16.20
2019-03-06T22:09:46.770Z,16.20
2019-03-06T22:12:17.316Z,16.20
2019-03-06T22:14:47.984Z,16.20
2019-03-06T22:17:19.061Z,16.20
2019-03-06T22:19:49.611Z,16.10
2019-03-06T22:22:20.302Z,16.10
2019-03-06T22:24:50.765Z,16.10
2019-03-06T22:27:21.313Z,16.00
2019-03-06T22:29:52.144Z,16.00
2019-03-06T22:32:22.601Z,16.00
2019-03-06T22:34:53.202Z,16.00
2019-03-06T22:37:23.677Z,16.00
2019-03-06T22:39:55.466Z,15.90
2019-03-06T22:42:26.228Z,16.00
2019-03-06T22:44:57.062Z,15.90
2019-03-06T22:47:29.205Z,15.90
2019-03-06T22:49:59.682Z,15.90
2019-03-06T22:52:30.240Z,15.90
2019-03-06T22:55:02.203Z,15.80
2019-03-06T22:57:32.746Z,15.80
2019-03-06T23:00:03.353Z,15.80
2019-03-06T23:02:35.427Z,15.80
2019-03-06T23:05:06.250Z,15.70
2019-03-06T23:07:36.825Z,15.70
2019-03-06T23:10:07.952Z,15.70
2019-03-06T23:12:39.194Z,15.70
2019-03-06T23:15:10.862Z,15.70
2019-03-06T23:17:41.458Z,15.60
2019-03-06T23:20:12.087Z,15.60
2019-03-06T23:22:42.720Z,15.60
2019-03-06T23:25:13.260Z,15.60
2019-03-06T23:27:44.005Z,15.60
2019-03-06T23:30:14.866Z,15.50
2019-03-06T23:32:45.558Z,15.50
2019-03-06T23:35:17.128Z,15.50
2019-03-06T23:37:47.704Z,15.50
2019-03-06T23:40:18.147Z,15.50
2019-03-06T23:42:48.629Z,15.50
2019-03-06T23:45:19.234Z,15.40
2019-03-06T23:47:49.666Z,15.40
2019-03-06T23:50:20.125Z,15.40
2019-03-06T23:53:19.764Z,15.30
2019-03-06T23:55:50.318Z,15.40
2019-03-06T23:58:20.809Z,15.30
